JP Observations

RJOI 130855Z 27007KT 9999 FEW030 BKN045 09/M02 A3027 RMK SLP251 T00891017 53020 RJTY 130856Z AUTO 21006KT 10SM FEW037 SCT049 BKN085 06/00 A3015 RMK AO2 SLP219 T00571002 50002 FZRANO $ RODN 130856Z AUTO 05008KT 10SM OVC039 18/12 A3025 RMK AO2 SLP251 T01760118 50014 $ ROTM 130856Z 04007KT 10SM OVC041 17/13 A3026 RMK AO2 SLP236 T01720128 52015